Wotan — V2CA5 — position and weather

sailwx.info

Track history (hours):
 
Tides and Currents Weather Stations Pressure Air Temp Water Temp Dewpoint Dewpoint Depression Visibility Wind Speed Wind Dir Waves Ship Positions

Wotan

Last reported at 2014-Nov-27 13:33 UTC. Time now 2014-Nov-27 14:28 UTC.
Position N 54°03' E 007°46'.

Length 100 m; draft 5.3 m.

Type: Cargo ship. MMSI: 304195000.

Date/timePositionNaut miles runAvg speedWind from/ knotsBaromVisibWave heightAir tempDewpointWater temp
2014-Nov-27 13:33N 54°03' E 007°46'9 9.0
2014-Nov-27 12:33N 54°02' E 008°01'9 8.5
2014-Nov-27 11:33N 53°60' E 008°15'8 8.5
2014-Nov-27 10:33N 53°59' E 008°29'1211.8
2014-Nov-27 09:33N 53°51' E 008°45'1313.2
2014-Nov-27 08:33N 53°53' E 009°07'2 1.8
2014-Nov-27 07:33N 53°54' E 009°10'8 7.7
2014-Nov-27 06:33N 54°00' E 009°18'8 8.1
2014-Nov-27 05:31N 54°08' E 009°21'10 8.0
2014-Nov-27 04:13N 54°14' E 009°36'6 7.6
2014-Nov-27 03:24N 54°18' E 009°43'6 7.7
2014-Nov-27 02:33N 54°22' E 009°53'6 6.4
2014-Nov-27 01:33N 54°22' E 010°04'3 2.7
2014-Nov-27 00:34N 54°22' E 010°08'2 1.7
2014-Nov-26 23:33N 54°23' E 010°11'9 9.3
2014-Nov-26 22:33N 54°30' E 010°19'9 9.2
2014-Nov-26 21:33N 54°34' E 010°34'36 8.9
2014-Nov-26 17:33N 54°29' E 011°35'9 9.3
2014-Nov-26 16:33N 54°27' E 011°51'10 9.5
2014-Nov-26 15:32N 54°27' E 012°07'42 8.4
2014-Nov-26 10:33N 54°47' E 013°11'75 8.3
2014-Nov-26 01:33N 53°46' E 014°24'9 9.5
2014-Nov-26 00:33N 53°38' E 014°34'5 0.9
2014-Nov-25 19:18N 53°34' E 014°36'0 0.0
2014-Nov-25 13:33N 53°34' E 014°36'0 0.0
2014-Nov-25 12:24N 53°34' E 014°36'0 0.0
2014-Nov-25 11:09N 53°34' E 014°36'0 0.0
2014-Nov-25 10:18N 53°34' E 014°36'0 0.0
2014-Nov-25 09:30N 53°34' E 014°36'0 0.0
2014-Nov-25 08:33N 53°34' E 014°36'0 0.0
2014-Nov-25 07:33N 53°34' E 014°36'0 0.0
2014-Nov-25 06:33N 53°34' E 014°36'0 0.0
2014-Nov-25 05:33N 53°34' E 014°36'0 0.0
2014-Nov-25 04:33N 53°34' E 014°36'0 0.0
2014-Nov-25 03:33N 53°34' E 014°36'0 0.0
2014-Nov-25 02:33N 53°34' E 014°36'0 0.0
2014-Nov-25 01:21N 53°34' E 014°36'0 0.0
2014-Nov-24 23:30N 53°34' E 014°36'0 0.0
2014-Nov-24 22:21N 53°34' E 014°36'0 0.0
2014-Nov-24 20:27N 53°34' E 014°36'0 0.0
2014-Nov-24 19:33N 53°34' E 014°36'0 0.0
2014-Nov-24 18:30N 53°34' E 014°36'0 0.0
2014-Nov-24 17:33N 53°34' E 014°36'0 0.0
2014-Nov-24 16:30N 53°34' E 014°36'0 0.0
2014-Nov-24 15:33N 53°34' E 014°36'0 0.0
2014-Nov-24 14:18N 53°34' E 014°36'0 0.0
2014-Nov-24 13:33N 53°34' E 014°36'0 0.0
2014-Nov-24 12:33N 53°34' E 014°36'0 0.0
2014-Nov-24 11:33N 53°34' E 014°36'0 0.0
2014-Nov-24 10:33N 53°34' E 014°36'0 0.0
2014-Nov-24 09:33N 53°34' E 014°36'0 0.0
2014-Nov-24 08:33N 53°34' E 014°36'0 0.0
2014-Nov-24 07:27N 53°34' E 014°36'0 0.0
2014-Nov-24 05:27N 53°34' E 014°36'0 0.0
2014-Nov-24 03:09N 53°34' E 014°36'0 0.0
2014-Nov-24 02:33N 53°34' E 014°36'0 0.0
2014-Nov-24 01:21N 53°34' E 014°36'0 0.0
2014-Nov-24 00:15N 53°34' E 014°36'0 0.0
2014-Nov-23 23:09N 53°34' E 014°36'0 0.0
2014-Nov-23 22:21N 53°34' E 014°36'0 0.0
2014-Nov-23 21:33N 53°34' E 014°36'0 0.0
2014-Nov-23 19:33N 53°34' E 014°36'0 0.0
2014-Nov-23 18:09N 53°34' E 014°36'0 0.0
2014-Nov-23 16:30N 53°34' E 014°36'0 0.0
2014-Nov-23 15:27N 53°34' E 014°36'0 0.0
2014-Nov-23 14:33N 53°34' E 014°36'0 0.0
2014-Nov-23 13:33N 53°34' E 014°36'0 0.0
2014-Nov-23 12:33N 53°34' E 014°36'0 0.0
2014-Nov-23 11:33N 53°34' E 014°36'0 0.0
2014-Nov-23 10:33N 53°34' E 014°36'0 0.0
2014-Nov-23 09:33N 53°34' E 014°36'0 0.0
2014-Nov-23 08:27N 53°34' E 014°36'0 0.0
2014-Nov-23 07:33N 53°34' E 014°36'0 0.0
2014-Nov-23 06:33N 53°34' E 014°36'0 0.0
2014-Nov-23 05:33N 53°34' E 014°36'0 0.0
2014-Nov-23 04:33N 53°34' E 014°36'0 0.0
2014-Nov-23 03:15N 53°34' E 014°36'0 0.0
2014-Nov-23 02:21N 53°34' E 014°36'0 0.0
2014-Nov-23 01:27N 53°34' E 014°36'0 0.0
2014-Nov-23 00:27N 53°34' E 014°36'0 0.0
2014-Nov-22 23:27N 53°34' E 014°36'0 0.0
2014-Nov-22 22:33N 53°34' E 014°36'0 0.0
2014-Nov-22 19:33N 53°34' E 014°36'0 0.0
2014-Nov-22 18:33N 53°34' E 014°36'0 0.0
2014-Nov-22 17:21N 53°34' E 014°36'0 0.0
2014-Nov-22 16:27N 53°34' E 014°36'0 0.0
2014-Nov-22 15:33N 53°34' E 014°36'0 0.0
2014-Nov-22 14:27N 53°34' E 014°36'0 0.0
2014-Nov-22 13:33N 53°34' E 014°36'0 0.0
2014-Nov-22 12:33N 53°34' E 014°36'4 3.6
2014-Nov-22 11:33N 53°30' E 014°38'6 5.9
2014-Nov-22 10:32N 53°24' E 014°37'0 0.0
2014-Nov-22 09:32N 53°24' E 014°37'0 0.0
2014-Nov-22 08:32N 53°24' E 014°37'0 0.0
2014-Nov-22 07:32N 53°24' E 014°37'0 0.0
2014-Nov-22 06:32N 53°24' E 014°37'0 0.0
2014-Nov-22 05:32N 53°24' E 014°37'0 0.0
2014-Nov-22 04:32N 53°24' E 014°37'0 0.0
2014-Nov-22 03:32N 53°24' E 014°37'0 0.0
2014-Nov-22 02:32N 53°24' E 014°37'0 0.0
2014-Nov-22 01:32N 53°24' E 014°37'0 0.0
2014-Nov-22 00:32N 53°24' E 014°37'0 0.0
2014-Nov-21 23:32N 53°24' E 014°37'0 0.0
2014-Nov-21 22:32N 53°24' E 014°37'0 0.0
2014-Nov-21 21:32N 53°24' E 014°37'0 0.0
2014-Nov-21 20:32N 53°24' E 014°37'0 0.0
2014-Nov-21 19:32N 53°24' E 014°37'0 0.0
2014-Nov-21 18:32N 53°24' E 014°37'0 0.0
2014-Nov-21 17:32N 53°24' E 014°37'0 0.0
2014-Nov-21 16:32N 53°24' E 014°37'0 0.0
2014-Nov-21 15:32N 53°24' E 014°37'0 0.0
2014-Nov-21 14:32N 53°24' E 014°37'0 0.0
2014-Nov-21 13:32N 53°24' E 014°37'0 0.0
2014-Nov-21 12:29N 53°24' E 014°37'0 0.0
2014-Nov-21 11:32N 53°24' E 014°37'0 0.0
2014-Nov-21 10:32N 53°24' E 014°37'0 0.0
2014-Nov-21 09:32N 53°24' E 014°37'0 0.0
2014-Nov-21 08:32N 53°24' E 014°37'0 0.0
2014-Nov-21 07:32N 53°24' E 014°37'0 0.0
2014-Nov-21 06:32N 53°24' E 014°37'3 3.4
2014-Nov-21 05:34N 53°28' E 014°36'7 7.1
2014-Nov-21 04:34N 53°35' E 014°36'9 9.2
2014-Nov-21 03:34N 53°43' E 014°28'10 9.5
2014-Nov-21 02:33N 53°50' E 014°18'7 7.1
2014-Nov-21 01:33N 53°57' E 014°16'90 9.5
2014-Nov-20 16:11N 55°13' E 012°54'6 9.8
2014-Nov-20 15:34N 55°16' E 012°45'8 7.6
2014-Nov-20 14:34N 55°23' E 012°38'1010.1
2014-Nov-20 13:34N 55°32' E 012°42'1010.3
2014-Nov-20 12:34N 55°43' E 012°41'1010.3
2014-Nov-20 11:33N 55°53' E 012°39'10 9.8
2014-Nov-20 10:34N 56°03' E 012°38'9 9.0
2014-Nov-20 09:34N 56°08' E 012°26'9 9.4
2014-Nov-20 08:33N 56°14' E 012°12'9 8.9
2014-Nov-20 07:33N 56°21' E 012°02'6210.2
2014-Nov-20 01:28N 57°21' E 011°35'910.4
2014-Nov-20 00:33N 57°30' E 011°37'6 5.4
2014-Nov-19 23:32N 57°36' E 011°41'0 0.1
2014-Nov-19 22:33N 57°35' E 011°41'0 0.0
2014-Nov-19 21:33N 57°35' E 011°41'0 0.0
2014-Nov-19 20:33N 57°35' E 011°41'0 0.0
2014-Nov-19 19:33N 57°35' E 011°41'0 0.0
2014-Nov-19 18:33N 57°35' E 011°41'7 7.1
2014-Nov-19 17:33N 57°37' E 011°28'1010.3
2014-Nov-19 16:33N 57°41' E 011°11'10 9.4
2014-Nov-19 15:32N 57°45' E 010°54'8 8.4
2014-Nov-19 14:33N 57°47' E 010°39'8 7.5
2014-Nov-19 13:30N 57°46' E 010°25'157 6.8
2014-Nov-18 14:30N 58°11' E 005°31'  
Track history (hours):
 
Tides and Currents Weather Stations Pressure Air Temp Water Temp Dewpoint Dewpoint Depression Visibility Wind Speed Wind Dir Waves Ship Positions

Wotan

Last reported at 2014-Nov-27 13:33 UTC. Time now 2014-Nov-27 14:28 UTC.
Position N 54°03' E 007°46'.

Length 100 m; draft 5.3 m.

Type: Cargo ship. MMSI: 304195000.

Date/timePositionNaut miles runAvg speedWind from/ knotsBaromVisibWave heightAir tempDewpointWater temp
2014-Nov-27 13:33N 54°03' E 007°46'9 9.0
2014-Nov-27 12:33N 54°02' E 008°01'9 8.5
2014-Nov-27 11:33N 53°60' E 008°15'8 8.5
2014-Nov-27 10:33N 53°59' E 008°29'1211.8
2014-Nov-27 09:33N 53°51' E 008°45'1313.2
2014-Nov-27 08:33N 53°53' E 009°07'2 1.8
2014-Nov-27 07:33N 53°54' E 009°10'8 7.7
2014-Nov-27 06:33N 54°00' E 009°18'8 8.1
2014-Nov-27 05:31N 54°08' E 009°21'10 8.0
2014-Nov-27 04:13N 54°14' E 009°36'6 7.6
2014-Nov-27 03:24N 54°18' E 009°43'6 7.7
2014-Nov-27 02:33N 54°22' E 009°53'6 6.4
2014-Nov-27 01:33N 54°22' E 010°04'3 2.7
2014-Nov-27 00:34N 54°22' E 010°08'2 1.7
2014-Nov-26 23:33N 54°23' E 010°11'9 9.3
2014-Nov-26 22:33N 54°30' E 010°19'9 9.2
2014-Nov-26 21:33N 54°34' E 010°34'36 8.9
2014-Nov-26 17:33N 54°29' E 011°35'9 9.3
2014-Nov-26 16:33N 54°27' E 011°51'10 9.5
2014-Nov-26 15:32N 54°27' E 012°07'42 8.4
2014-Nov-26 10:33N 54°47' E 013°11'75 8.3
2014-Nov-26 01:33N 53°46' E 014°24'9 9.5
2014-Nov-26 00:33N 53°38' E 014°34'5 0.9
2014-Nov-25 19:18N 53°34' E 014°36'0 0.0
2014-Nov-25 13:33N 53°34' E 014°36'0 0.0
2014-Nov-25 12:24N 53°34' E 014°36'0 0.0
2014-Nov-25 11:09N 53°34' E 014°36'0 0.0
2014-Nov-25 10:18N 53°34' E 014°36'0 0.0
2014-Nov-25 09:30N 53°34' E 014°36'0 0.0
2014-Nov-25 08:33N 53°34' E 014°36'0 0.0
2014-Nov-25 07:33N 53°34' E 014°36'0 0.0
2014-Nov-25 06:33N 53°34' E 014°36'0 0.0
2014-Nov-25 05:33N 53°34' E 014°36'0 0.0
2014-Nov-25 04:33N 53°34' E 014°36'0 0.0
2014-Nov-25 03:33N 53°34' E 014°36'0 0.0
2014-Nov-25 02:33N 53°34' E 014°36'0 0.0
2014-Nov-25 01:21N 53°34' E 014°36'0 0.0
2014-Nov-24 23:30N 53°34' E 014°36'0 0.0
2014-Nov-24 22:21N 53°34' E 014°36'0 0.0
2014-Nov-24 20:27N 53°34' E 014°36'0 0.0
2014-Nov-24 19:33N 53°34' E 014°36'0 0.0
2014-Nov-24 18:30N 53°34' E 014°36'0 0.0
2014-Nov-24 17:33N 53°34' E 014°36'0 0.0
2014-Nov-24 16:30N 53°34' E 014°36'0 0.0
2014-Nov-24 15:33N 53°34' E 014°36'0 0.0
2014-Nov-24 14:18N 53°34' E 014°36'0 0.0
2014-Nov-24 13:33N 53°34' E 014°36'0 0.0
2014-Nov-24 12:33N 53°34' E 014°36'0 0.0
2014-Nov-24 11:33N 53°34' E 014°36'0 0.0
2014-Nov-24 10:33N 53°34' E 014°36'0 0.0
2014-Nov-24 09:33N 53°34' E 014°36'0 0.0
2014-Nov-24 08:33N 53°34' E 014°36'0 0.0
2014-Nov-24 07:27N 53°34' E 014°36'0 0.0
2014-Nov-24 05:27N 53°34' E 014°36'0 0.0
2014-Nov-24 03:09N 53°34' E 014°36'0 0.0
2014-Nov-24 02:33N 53°34' E 014°36'0 0.0
2014-Nov-24 01:21N 53°34' E 014°36'0 0.0
2014-Nov-24 00:15N 53°34' E 014°36'0 0.0
2014-Nov-23 23:09N 53°34' E 014°36'0 0.0
2014-Nov-23 22:21N 53°34' E 014°36'0 0.0
2014-Nov-23 21:33N 53°34' E 014°36'0 0.0
2014-Nov-23 19:33N 53°34' E 014°36'0 0.0
2014-Nov-23 18:09N 53°34' E 014°36'0 0.0
2014-Nov-23 16:30N 53°34' E 014°36'0 0.0
2014-Nov-23 15:27N 53°34' E 014°36'0 0.0
2014-Nov-23 14:33N 53°34' E 014°36'0 0.0
2014-Nov-23 13:33N 53°34' E 014°36'0 0.0
2014-Nov-23 12:33N 53°34' E 014°36'0 0.0
2014-Nov-23 11:33N 53°34' E 014°36'0 0.0
2014-Nov-23 10:33N 53°34' E 014°36'0 0.0
2014-Nov-23 09:33N 53°34' E 014°36'0 0.0
2014-Nov-23 08:27N 53°34' E 014°36'0 0.0
2014-Nov-23 07:33N 53°34' E 014°36'0 0.0
2014-Nov-23 06:33N 53°34' E 014°36'0 0.0
2014-Nov-23 05:33N 53°34' E 014°36'0 0.0
2014-Nov-23 04:33N 53°34' E 014°36'0 0.0
2014-Nov-23 03:15N 53°34' E 014°36'0 0.0
2014-Nov-23 02:21N 53°34' E 014°36'0 0.0
2014-Nov-23 01:27N 53°34' E 014°36'0 0.0
2014-Nov-23 00:27N 53°34' E 014°36'0 0.0
2014-Nov-22 23:27N 53°34' E 014°36'0 0.0
2014-Nov-22 22:33N 53°34' E 014°36'0 0.0
2014-Nov-22 19:33N 53°34' E 014°36'0 0.0
2014-Nov-22 18:33N 53°34' E 014°36'0 0.0
2014-Nov-22 17:21N 53°34' E 014°36'0 0.0
2014-Nov-22 16:27N 53°34' E 014°36'0 0.0
2014-Nov-22 15:33N 53°34' E 014°36'0 0.0
2014-Nov-22 14:27N 53°34' E 014°36'0 0.0
2014-Nov-22 13:33N 53°34' E 014°36'0 0.0
2014-Nov-22 12:33N 53°34' E 014°36'4 3.6
2014-Nov-22 11:33N 53°30' E 014°38'6 5.9
2014-Nov-22 10:32N 53°24' E 014°37'0 0.0
2014-Nov-22 09:32N 53°24' E 014°37'0 0.0
2014-Nov-22 08:32N 53°24' E 014°37'0 0.0
2014-Nov-22 07:32N 53°24' E 014°37'0 0.0
2014-Nov-22 06:32N 53°24' E 014°37'0 0.0
2014-Nov-22 05:32N 53°24' E 014°37'0 0.0
2014-Nov-22 04:32N 53°24' E 014°37'0 0.0
2014-Nov-22 03:32N 53°24' E 014°37'0 0.0
2014-Nov-22 02:32N 53°24' E 014°37'0 0.0
2014-Nov-22 01:32N 53°24' E 014°37'0 0.0
2014-Nov-22 00:32N 53°24' E 014°37'0 0.0
2014-Nov-21 23:32N 53°24' E 014°37'0 0.0
2014-Nov-21 22:32N 53°24' E 014°37'0 0.0
2014-Nov-21 21:32N 53°24' E 014°37'0 0.0
2014-Nov-21 20:32N 53°24' E 014°37'0 0.0
2014-Nov-21 19:32N 53°24' E 014°37'0 0.0
2014-Nov-21 18:32N 53°24' E 014°37'0 0.0
2014-Nov-21 17:32N 53°24' E 014°37'0 0.0
2014-Nov-21 16:32N 53°24' E 014°37'0 0.0
2014-Nov-21 15:32N 53°24' E 014°37'0 0.0
2014-Nov-21 14:32N 53°24' E 014°37'0 0.0
2014-Nov-21 13:32N 53°24' E 014°37'0 0.0
2014-Nov-21 12:29N 53°24' E 014°37'0 0.0
2014-Nov-21 11:32N 53°24' E 014°37'0 0.0
2014-Nov-21 10:32N 53°24' E 014°37'0 0.0
2014-Nov-21 09:32N 53°24' E 014°37'0 0.0
2014-Nov-21 08:32N 53°24' E 014°37'0 0.0
2014-Nov-21 07:32N 53°24' E 014°37'0 0.0
2014-Nov-21 06:32N 53°24' E 014°37'3 3.4
2014-Nov-21 05:34N 53°28' E 014°36'7 7.1
2014-Nov-21 04:34N 53°35' E 014°36'9 9.2
2014-Nov-21 03:34N 53°43' E 014°28'10 9.5
2014-Nov-21 02:33N 53°50' E 014°18'7 7.1
2014-Nov-21 01:33N 53°57' E 014°16'90 9.5
2014-Nov-20 16:11N 55°13' E 012°54'6 9.8
2014-Nov-20 15:34N 55°16' E 012°45'8 7.6
2014-Nov-20 14:34N 55°23' E 012°38'1010.1
2014-Nov-20 13:34N 55°32' E 012°42'1010.3
2014-Nov-20 12:34N 55°43' E 012°41'1010.3
2014-Nov-20 11:33N 55°53' E 012°39'10 9.8
2014-Nov-20 10:34N 56°03' E 012°38'9 9.0
2014-Nov-20 09:34N 56°08' E 012°26'9 9.4
2014-Nov-20 08:33N 56°14' E 012°12'9 8.9
2014-Nov-20 07:33N 56°21' E 012°02'6210.2
2014-Nov-20 01:28N 57°21' E 011°35'910.4
2014-Nov-20 00:33N 57°30' E 011°37'6 5.4
2014-Nov-19 23:32N 57°36' E 011°41'0 0.1
2014-Nov-19 22:33N 57°35' E 011°41'0 0.0
2014-Nov-19 21:33N 57°35' E 011°41'0 0.0
2014-Nov-19 20:33N 57°35' E 011°41'0 0.0
2014-Nov-19 19:33N 57°35' E 011°41'0 0.0
2014-Nov-19 18:33N 57°35' E 011°41'7 7.1
2014-Nov-19 17:33N 57°37' E 011°28'1010.3
2014-Nov-19 16:33N 57°41' E 011°11'10 9.4
2014-Nov-19 15:32N 57°45' E 010°54'8 8.4
2014-Nov-19 14:33N 57°47' E 010°39'8 7.5
2014-Nov-19 13:30N 57°46' E 010°25'157 6.8
2014-Nov-18 14:30N 58°11' E 005°31'  

Dump ship's entire track history